Terminal Aerodrome Forecast
Issued by NWS

Home | Current Version | Previous Version | Text Only | Print | Product List | Glossary On
Versions: 1 2 3 4 5 6 7 8 9 10 11 12 13 14 15 16
000
FTUS45 KFGZ 010500
TAFPRC
TAF
KPRC 010538Z 0106/0206 19007KT P6SM VCSH SCT030 OVC040
      TEMPO 0106/0108 4SM -SHRA BR BKN025
     FM010800 18007KT 5SM -SHRA BR BKN020 OVC030
     FM011600 19012KT 4SM -RA BR BKN015 OVC020=

USA.gov is the U.S. government's official web portal to all federal, state and local government web resources and services.